sensor_id;sensor_type;location;lat;lon;timestamp;P1;durP1;ratioP1;P2;durP2;ratioP2
45326;SDS011;31062;49.678;24.560;2022-08-19T00:00:21;4.38;;;3.80;;
45326;SDS011;31062;49.678;24.560;2022-08-19T00:03:07;5.45;;;3.90;;
45326;SDS011;31062;49.678;24.560;2022-08-19T00:05:52;7.28;;;4.70;;
45326;SDS011;31062;49.678;24.560;2022-08-19T00:08:38;6.90;;;4.07;;
45326;SDS011;31062;49.678;24.560;2022-08-19T00:11:27;6.95;;;4.43;;
45326;SDS011;31062;49.678;24.560;2022-08-19T00:14:14;4.55;;;4.15;;
45326;SDS011;31062;49.678;24.560;2022-08-19T00:17:01;4.20;;;3.90;;
45326;SDS011;31062;49.678;24.560;2022-08-19T00:19:48;4.65;;;4.05;;
45326;SDS011;31062;49.678;24.560;2022-08-19T00:22:34;4.35;;;3.95;;
45326;SDS011;31062;49.678;24.560;2022-08-19T00:25:19;8.43;;;3.60;;
45326;SDS011;31062;49.678;24.560;2022-08-19T00:28:14;7.13;;;4.07;;
45326;SDS011;31062;49.678;24.560;2022-08-19T00:31:00;4.40;;;3.55;;
45326;SDS011;31062;49.678;24.560;2022-08-19T00:33:47;6.43;;;3.80;;
45326;SDS011;31062;49.678;24.560;2022-08-19T00:36:35;9.18;;;3.83;;
45326;SDS011;31062;49.678;24.560;2022-08-19T00:39:21;5.28;;;3.95;;
45326;SDS011;31062;49.678;24.560;2022-08-19T00:42:07;4.20;;;3.72;;
45326;SDS011;31062;49.678;24.560;2022-08-19T00:44:53;4.25;;;3.58;;
45326;SDS011;31062;49.678;24.560;2022-08-19T00:47:38;4.78;;;3.92;;
45326;SDS011;31062;49.678;24.560;2022-08-19T00:50:24;3.88;;;3.47;;
45326;SDS011;31062;49.678;24.560;2022-08-19T00:53:13;4.35;;;3.80;;
45326;SDS011;31062;49.678;24.560;2022-08-19T00:56:02;7.97;;;3.50;;
45326;SDS011;31062;49.678;24.560;2022-08-19T00:58:51;3.80;;;3.50;;
45326;SDS011;31062;49.678;24.560;2022-08-19T01:01:40;3.90;;;3.60;;
45326;SDS011;31062;49.678;24.560;2022-08-19T01:04:27;3.88;;;3.28;;
45326;SDS011;31062;49.678;24.560;2022-08-19T01:07:13;9.38;;;4.20;;
45326;SDS011;31062;49.678;24.560;2022-08-19T01:10:02;15.70;;;5.07;;
45326;SDS011;31062;49.678;24.560;2022-08-19T01:12:49;9.00;;;5.03;;
45326;SDS011;31062;49.678;24.560;2022-08-19T01:15:40;5.00;;;4.60;;
45326;SDS011;31062;49.678;24.560;2022-08-19T01:18:30;5.85;;;5.05;;
45326;SDS011;31062;49.678;24.560;2022-08-19T01:24:25;5.35;;;4.90;;
45326;SDS011;31062;49.678;24.560;2022-08-19T01:27:11;5.05;;;4.57;;
45326;SDS011;31062;49.678;24.560;2022-08-19T01:29:56;5.00;;;4.50;;
45326;SDS011;31062;49.678;24.560;2022-08-19T01:32:42;4.65;;;4.30;;
45326;SDS011;31062;49.678;24.560;2022-08-19T01:35:29;7.47;;;4.30;;
45326;SDS011;31062;49.678;24.560;2022-08-19T01:38:20;5.75;;;3.97;;
45326;SDS011;31062;49.678;24.560;2022-08-19T01:41:11;6.57;;;3.80;;
45326;SDS011;31062;49.678;24.560;2022-08-19T01:43:57;5.57;;;4.28;;
45326;SDS011;31062;49.678;24.560;2022-08-19T01:47:02;6.32;;;3.70;;
45326;SDS011;31062;49.678;24.560;2022-08-19T01:49:49;4.82;;;3.92;;
45326;SDS011;31062;49.678;24.560;2022-08-19T01:52:35;11.88;;;4.40;;
45326;SDS011;31062;49.678;24.560;2022-08-19T01:55:22;7.75;;;4.03;;
45326;SDS011;31062;49.678;24.560;2022-08-19T01:58:15;5.57;;;4.10;;
45326;SDS011;31062;49.678;24.560;2022-08-19T02:01:06;6.60;;;3.88;;
45326;SDS011;31062;49.678;24.560;2022-08-19T02:03:52;3.97;;;3.67;;
45326;SDS011;31062;49.678;24.560;2022-08-19T02:06:42;3.50;;;3.28;;
45326;SDS011;31062;49.678;24.560;2022-08-19T02:09:27;8.48;;;3.50;;
45326;SDS011;31062;49.678;24.560;2022-08-19T02:12:13;6.00;;;3.40;;
45326;SDS011;31062;49.678;24.560;2022-08-19T02:14:59;4.03;;;3.38;;
45326;SDS011;31062;49.678;24.560;2022-08-19T02:17:47;3.45;;;3.25;;
45326;SDS011;31062;49.678;24.560;2022-08-19T02:20:34;4.22;;;3.40;;
45326;SDS011;31062;49.678;24.560;2022-08-19T02:23:20;5.97;;;3.70;;
45326;SDS011;31062;49.678;24.560;2022-08-19T02:26:06;5.78;;;3.83;;
45326;SDS011;31062;49.678;24.560;2022-08-19T02:28:52;5.57;;;3.08;;
45326;SDS011;31062;49.678;24.560;2022-08-19T02:31:38;3.80;;;3.30;;
45326;SDS011;31062;49.678;24.560;2022-08-19T02:34:24;10.05;;;3.67;;
45326;SDS011;31062;49.678;24.560;2022-08-19T02:37:09;4.18;;;3.58;;
45326;SDS011;31062;49.678;24.560;2022-08-19T02:40:19;5.68;;;3.97;;
45326;SDS011;31062;49.678;24.560;2022-08-19T02:43:05;7.32;;;3.85;;
45326;SDS011;31062;49.678;24.560;2022-08-19T02:45:53;4.82;;;3.47;;
45326;SDS011;31062;49.678;24.560;2022-08-19T02:48:40;4.50;;;3.67;;
45326;SDS011;31062;49.678;24.560;2022-08-19T02:51:26;7.15;;;3.50;;
45326;SDS011;31062;49.678;24.560;2022-08-19T02:54:23;5.50;;;3.67;;
45326;SDS011;31062;49.678;24.560;2022-08-19T02:57:09;6.22;;;3.28;;
45326;SDS011;31062;49.678;24.560;2022-08-19T02:59:55;3.30;;;3.00;;
45326;SDS011;31062;49.678;24.560;2022-08-19T03:02:41;3.38;;;3.08;;
45326;SDS011;31062;49.678;24.560;2022-08-19T03:05:27;3.70;;;3.40;;
45326;SDS011;31062;49.678;24.560;2022-08-19T03:08:32;5.70;;;3.05;;
45326;SDS011;31062;49.678;24.560;2022-08-19T03:11:19;5.43;;;3.35;;
45326;SDS011;31062;49.678;24.560;2022-08-19T03:14:08;4.85;;;3.10;;
45326;SDS011;31062;49.678;24.560;2022-08-19T03:16:55;8.68;;;3.42;;
45326;SDS011;31062;49.678;24.560;2022-08-19T03:19:41;5.18;;;3.65;;
45326;SDS011;31062;49.678;24.560;2022-08-19T03:22:28;9.40;;;3.80;;
45326;SDS011;31062;49.678;24.560;2022-08-19T03:25:15;3.67;;;3.38;;
45326;SDS011;31062;49.678;24.560;2022-08-19T03:28:01;5.15;;;3.47;;
45326;SDS011;31062;49.678;24.560;2022-08-19T03:30:57;5.05;;;3.00;;
45326;SDS011;31062;49.678;24.560;2022-08-19T03:33:46;6.80;;;3.50;;
45326;SDS011;31062;49.678;24.560;2022-08-19T03:36:34;7.68;;;3.83;;
45326;SDS011;31062;49.678;24.560;2022-08-19T03:39:21;8.73;;;3.58;;
45326;SDS011;31062;49.678;24.560;2022-08-19T03:42:08;4.45;;;2.63;;
45326;SDS011;31062;49.678;24.560;2022-08-19T03:45:15;5.93;;;3.25;;
45326;SDS011;31062;49.678;24.560;2022-08-19T03:48:01;5.32;;;2.88;;
45326;SDS011;31062;49.678;24.560;2022-08-19T03:50:48;9.88;;;3.63;;
45326;SDS011;31062;49.678;24.560;2022-08-19T03:53:35;4.70;;;3.80;;
45326;SDS011;31062;49.678;24.560;2022-08-19T03:56:21;4.35;;;3.35;;
45326;SDS011;31062;49.678;24.560;2022-08-19T03:59:13;8.50;;;3.10;;
45326;SDS011;31062;49.678;24.560;2022-08-19T04:02:03;7.63;;;3.13;;
45326;SDS011;31062;49.678;24.560;2022-08-19T04:04:54;5.15;;;3.00;;
45326;SDS011;31062;49.678;24.560;2022-08-19T04:07:41;3.60;;;3.15;;
45326;SDS011;31062;49.678;24.560;2022-08-19T04:10:29;3.30;;;2.90;;
45326;SDS011;31062;49.678;24.560;2022-08-19T04:13:17;5.32;;;3.00;;
45326;SDS011;31062;49.678;24.560;2022-08-19T04:16:04;4.05;;;3.40;;
45326;SDS011;31062;49.678;24.560;2022-08-19T04:18:51;3.42;;;2.60;;
45326;SDS011;31062;49.678;24.560;2022-08-19T04:21:36;4.05;;;2.90;;
45326;SDS011;31062;49.678;24.560;2022-08-19T04:24:23;2.80;;;2.60;;
45326;SDS011;31062;49.678;24.560;2022-08-19T04:27:09;3.08;;;2.88;;
45326;SDS011;31062;49.678;24.560;2022-08-19T04:29:55;3.75;;;3.05;;
45326;SDS011;31062;49.678;24.560;2022-08-19T04:32:41;4.03;;;3.40;;
45326;SDS011;31062;49.678;24.560;2022-08-19T04:35:36;15.38;;;3.60;;
45326;SDS011;31062;49.678;24.560;2022-08-19T04:38:26;3.95;;;3.30;;
45326;SDS011;31062;49.678;24.560;2022-08-19T04:41:12;4.38;;;3.17;;
45326;SDS011;31062;49.678;24.560;2022-08-19T04:44:17;3.30;;;3.10;;
45326;SDS011;31062;49.678;24.560;2022-08-19T04:47:03;5.65;;;3.50;;
45326;SDS011;31062;49.678;24.560;2022-08-19T04:49:56;3.20;;;3.00;;
45326;SDS011;31062;49.678;24.560;2022-08-19T04:52:42;3.20;;;2.90;;
45326;SDS011;31062;49.678;24.560;2022-08-19T04:55:29;5.43;;;3.33;;
45326;SDS011;31062;49.678;24.560;2022-08-19T04:58:14;10.75;;;3.58;;
45326;SDS011;31062;49.678;24.560;2022-08-19T05:01:01;4.57;;;3.38;;
45326;SDS011;31062;49.678;24.560;2022-08-19T05:03:47;4.47;;;3.97;;
45326;SDS011;31062;49.678;24.560;2022-08-19T05:06:32;6.43;;;3.70;;
45326;SDS011;31062;49.678;24.560;2022-08-19T05:09:19;6.28;;;4.00;;
45326;SDS011;31062;49.678;24.560;2022-08-19T05:12:07;6.70;;;4.50;;
45326;SDS011;31062;49.678;24.560;2022-08-19T05:14:52;6.35;;;4.05;;
45326;SDS011;31062;49.678;24.560;2022-08-19T05:17:39;8.25;;;5.07;;
45326;SDS011;31062;49.678;24.560;2022-08-19T05:20:53;8.98;;;4.88;;
45326;SDS011;31062;49.678;24.560;2022-08-19T05:23:58;10.02;;;5.78;;
45326;SDS011;31062;49.678;24.560;2022-08-19T05:26:50;7.57;;;4.35;;
45326;SDS011;31062;49.678;24.560;2022-08-19T05:29:37;5.03;;;4.53;;
45326;SDS011;31062;49.678;24.560;2022-08-19T05:32:23;8.88;;;4.97;;
45326;SDS011;31062;49.678;24.560;2022-08-19T05:35:15;10.40;;;4.50;;
45326;SDS011;31062;49.678;24.560;2022-08-19T05:38:01;5.22;;;4.22;;
45326;SDS011;31062;49.678;24.560;2022-08-19T05:40:46;8.60;;;4.63;;
45326;SDS011;31062;49.678;24.560;2022-08-19T05:43:36;5.82;;;4.40;;
45326;SDS011;31062;49.678;24.560;2022-08-19T05:46:22;7.00;;;4.50;;
45326;SDS011;31062;49.678;24.560;2022-08-19T05:49:13;9.88;;;4.47;;
45326;SDS011;31062;49.678;24.560;2022-08-19T05:52:02;13.18;;;4.32;;
45326;SDS011;31062;49.678;24.560;2022-08-19T05:54:50;7.75;;;4.93;;
45326;SDS011;31062;49.678;24.560;2022-08-19T05:57:36;10.65;;;5.40;;
45326;SDS011;31062;49.678;24.560;2022-08-19T06:00:21;6.95;;;5.53;;
45326;SDS011;31062;49.678;24.560;2022-08-19T06:03:09;6.90;;;5.32;;
45326;SDS011;31062;49.678;24.560;2022-08-19T06:05:57;6.53;;;5.80;;
45326;SDS011;31062;49.678;24.560;2022-08-19T06:08:44;8.43;;;5.97;;
45326;SDS011;31062;49.678;24.560;2022-08-19T06:11:42;7.13;;;5.45;;
45326;SDS011;31062;49.678;24.560;2022-08-19T06:14:32;7.32;;;5.28;;
45326;SDS011;31062;49.678;24.560;2022-08-19T06:17:26;10.38;;;5.60;;
45326;SDS011;31062;49.678;24.560;2022-08-19T06:20:13;5.65;;;5.15;;
45326;SDS011;31062;49.678;24.560;2022-08-19T06:23:00;6.18;;;5.25;;
45326;SDS011;31062;49.678;24.560;2022-08-19T06:25:46;8.48;;;5.22;;
45326;SDS011;31062;49.678;24.560;2022-08-19T06:28:33;5.28;;;4.78;;
45326;SDS011;31062;49.678;24.560;2022-08-19T06:31:19;10.07;;;5.20;;
45326;SDS011;31062;49.678;24.560;2022-08-19T06:34:07;10.05;;;6.45;;
45326;SDS011;31062;49.678;24.560;2022-08-19T06:36:55;8.38;;;5.32;;
45326;SDS011;31062;49.678;24.560;2022-08-19T06:39:46;11.98;;;5.55;;
45326;SDS011;31062;49.678;24.560;2022-08-19T06:42:32;10.00;;;5.00;;
45326;SDS011;31062;49.678;24.560;2022-08-19T06:45:20;8.60;;;5.28;;
45326;SDS011;31062;49.678;24.560;2022-08-19T06:48:18;7.65;;;5.45;;
45326;SDS011;31062;49.678;24.560;2022-08-19T06:51:05;8.57;;;4.75;;
45326;SDS011;31062;49.678;24.560;2022-08-19T06:53:53;11.73;;;5.10;;
45326;SDS011;31062;49.678;24.560;2022-08-19T06:56:41;5.18;;;4.70;;
45326;SDS011;31062;49.678;24.560;2022-08-19T06:59:29;5.28;;;4.78;;
45326;SDS011;31062;49.678;24.560;2022-08-19T07:02:18;11.88;;;5.43;;
45326;SDS011;31062;49.678;24.560;2022-08-19T07:05:06;10.13;;;5.03;;
45326;SDS011;31062;49.678;24.560;2022-08-19T07:07:55;9.68;;;5.15;;
45326;SDS011;31062;49.678;24.560;2022-08-19T07:10:48;5.18;;;4.38;;
45326;SDS011;31062;49.678;24.560;2022-08-19T07:13:35;7.53;;;4.68;;
45326;SDS011;31062;49.678;24.560;2022-08-19T07:16:23;9.60;;;5.00;;
45326;SDS011;31062;49.678;24.560;2022-08-19T07:19:16;6.78;;;4.78;;
45326;SDS011;31062;49.678;24.560;2022-08-19T07:22:04;8.73;;;5.43;;
45326;SDS011;31062;49.678;24.560;2022-08-19T07:24:57;7.95;;;4.55;;
45326;SDS011;31062;49.678;24.560;2022-08-19T07:27:42;7.63;;;4.57;;
45326;SDS011;31062;49.678;24.560;2022-08-19T07:30:35;9.37;;;4.90;;
45326;SDS011;31062;49.678;24.560;2022-08-19T07:33:22;10.27;;;4.95;;
45326;SDS011;31062;49.678;24.560;2022-08-19T07:36:12;8.60;;;4.65;;
45326;SDS011;31062;49.678;24.560;2022-08-19T07:39:00;4.93;;;4.53;;
45326;SDS011;31062;49.678;24.560;2022-08-19T07:41:50;7.35;;;4.03;;
45326;SDS011;31062;49.678;24.560;2022-08-19T07:44:36;5.13;;;4.68;;
45326;SDS011;31062;49.678;24.560;2022-08-19T07:47:28;10.43;;;4.40;;
45326;SDS011;31062;49.678;24.560;2022-08-19T07:50:34;5.75;;;4.13;;
45326;SDS011;31062;49.678;24.560;2022-08-19T07:53:19;4.35;;;3.85;;
45326;SDS011;31062;49.678;24.560;2022-08-19T07:56:06;11.93;;;4.80;;
45326;SDS011;31062;49.678;24.560;2022-08-19T07:58:52;9.48;;;4.07;;
45326;SDS011;31062;49.678;24.560;2022-08-19T08:01:38;7.43;;;4.57;;
45326;SDS011;31062;49.678;24.560;2022-08-19T08:04:26;6.97;;;4.20;;
45326;SDS011;31062;49.678;24.560;2022-08-19T08:07:32;6.25;;;3.97;;
45326;SDS011;31062;49.678;24.560;2022-08-19T08:10:37;6.78;;;3.70;;
45326;SDS011;31062;49.678;24.560;2022-08-19T08:13:24;5.20;;;3.55;;
45326;SDS011;31062;49.678;24.560;2022-08-19T08:16:10;5.55;;;3.65;;
45326;SDS011;31062;49.678;24.560;2022-08-19T08:18:58;7.38;;;3.65;;
45326;SDS011;31062;49.678;24.560;2022-08-19T08:21:45;8.13;;;4.57;;
45326;SDS011;31062;49.678;24.560;2022-08-19T08:24:33;5.82;;;3.30;;
45326;SDS011;31062;49.678;24.560;2022-08-19T08:27:21;5.35;;;2.78;;
45326;SDS011;31062;49.678;24.560;2022-08-19T08:30:30;11.90;;;3.33;;
45326;SDS011;31062;49.678;24.560;2022-08-19T08:33:39;5.18;;;3.40;;
45326;SDS011;31062;49.678;24.560;2022-08-19T08:36:27;5.35;;;3.25;;
45326;SDS011;31062;49.678;24.560;2022-08-19T08:39:18;7.22;;;3.70;;
45326;SDS011;31062;49.678;24.560;2022-08-19T08:42:40;7.97;;;3.80;;
45326;SDS011;31062;49.678;24.560;2022-08-19T08:45:22;4.78;;;3.78;;
45326;SDS011;31062;49.678;24.560;2022-08-19T08:48:30;6.35;;;3.88;;
45326;SDS011;31062;49.678;24.560;2022-08-19T08:51:24;4.63;;;3.88;;
45326;SDS011;31062;49.678;24.560;2022-08-19T08:54:20;4.60;;;4.00;;
45326;SDS011;31062;49.678;24.560;2022-08-19T08:57:20;6.90;;;3.67;;
45326;SDS011;31062;49.678;24.560;2022-08-19T09:00:31;9.65;;;3.83;;
45326;SDS011;31062;49.678;24.560;2022-08-19T09:03:20;6.43;;;3.90;;
45326;SDS011;31062;49.678;24.560;2022-08-19T09:06:14;6.85;;;4.05;;
45326;SDS011;31062;49.678;24.560;2022-08-19T09:09:17;4.68;;;4.15;;
45326;SDS011;31062;49.678;24.560;2022-08-19T09:15:12;5.50;;;5.00;;
45326;SDS011;31062;49.678;24.560;2022-08-19T09:18:02;10.33;;;4.80;;
45326;SDS011;31062;49.678;24.560;2022-08-19T09:20:51;10.18;;;4.80;;
45326;SDS011;31062;49.678;24.560;2022-08-19T09:23:38;6.90;;;4.90;;
45326;SDS011;31062;49.678;24.560;2022-08-19T09:26:24;6.15;;;4.65;;
45326;SDS011;31062;49.678;24.560;2022-08-19T09:29:30;6.15;;;4.28;;
45326;SDS011;31062;49.678;24.560;2022-08-19T09:32:16;5.97;;;4.78;;
45326;SDS011;31062;49.678;24.560;2022-08-19T09:35:11;4.75;;;4.32;;
45326;SDS011;31062;49.678;24.560;2022-08-19T09:37:59;5.82;;;3.60;;
45326;SDS011;31062;49.678;24.560;2022-08-19T09:40:47;6.75;;;4.30;;
45326;SDS011;31062;49.678;24.560;2022-08-19T09:43:33;6.45;;;4.63;;
45326;SDS011;31062;49.678;24.560;2022-08-19T09:46:29;5.38;;;4.43;;
45326;SDS011;31062;49.678;24.560;2022-08-19T09:49:16;15.25;;;5.40;;
45326;SDS011;31062;49.678;24.560;2022-08-19T09:52:05;4.85;;;4.32;;
45326;SDS011;31062;49.678;24.560;2022-08-19T09:54:57;10.73;;;4.47;;
45326;SDS011;31062;49.678;24.560;2022-08-19T09:57:43;9.02;;;4.82;;
45326;SDS011;31062;49.678;24.560;2022-08-19T10:00:30;6.25;;;4.00;;
45326;SDS011;31062;49.678;24.560;2022-08-19T10:03:17;9.30;;;4.32;;
45326;SDS011;31062;49.678;24.560;2022-08-19T10:06:03;5.55;;;3.83;;
45326;SDS011;31062;49.678;24.560;2022-08-19T10:09:02;11.18;;;3.60;;
45326;SDS011;31062;49.678;24.560;2022-08-19T10:11:53;6.03;;;3.40;;
45326;SDS011;31062;49.678;24.560;2022-08-19T10:14:40;5.22;;;3.55;;
45326;SDS011;31062;49.678;24.560;2022-08-19T10:17:26;4.07;;;2.75;;
45326;SDS011;31062;49.678;24.560;2022-08-19T10:20:17;9.55;;;3.60;;
45326;SDS011;31062;49.678;24.560;2022-08-19T10:23:05;5.80;;;3.53;;
45326;SDS011;31062;49.678;24.560;2022-08-19T10:25:53;8.20;;;3.83;;
45326;SDS011;31062;49.678;24.560;2022-08-19T10:28:41;4.35;;;3.03;;
45326;SDS011;31062;49.678;24.560;2022-08-19T10:31:31;4.43;;;2.72;;
45326;SDS011;31062;49.678;24.560;2022-08-19T10:34:39;7.82;;;2.78;;
45326;SDS011;31062;49.678;24.560;2022-08-19T10:37:36;4.60;;;2.65;;
45326;SDS011;31062;49.678;24.560;2022-08-19T10:40:57;8.02;;;2.88;;
45326;SDS011;31062;49.678;24.560;2022-08-19T10:43:52;4.78;;;2.92;;
45326;SDS011;31062;49.678;24.560;2022-08-19T10:46:49;4.13;;;3.13;;
45326;SDS011;31062;49.678;24.560;2022-08-19T10:49:37;3.38;;;2.72;;
45326;SDS011;31062;49.678;24.560;2022-08-19T10:52:44;4.10;;;2.60;;
45326;SDS011;31062;49.678;24.560;2022-08-19T10:55:36;7.53;;;2.63;;
45326;SDS011;31062;49.678;24.560;2022-08-19T10:58:40;9.32;;;3.30;;
45326;SDS011;31062;49.678;24.560;2022-08-19T11:01:27;3.95;;;2.20;;
45326;SDS011;31062;49.678;24.560;2022-08-19T11:04:16;4.82;;;2.63;;
45326;SDS011;31062;49.678;24.560;2022-08-19T11:07:05;4.32;;;2.60;;
45326;SDS011;31062;49.678;24.560;2022-08-19T11:09:52;3.30;;;2.60;;
45326;SDS011;31062;49.678;24.560;2022-08-19T11:12:38;8.32;;;2.97;;
45326;SDS011;31062;49.678;24.560;2022-08-19T11:15:25;5.05;;;2.88;;
45326;SDS011;31062;49.678;24.560;2022-08-19T11:18:14;8.25;;;2.80;;
45326;SDS011;31062;49.678;24.560;2022-08-19T11:21:06;11.75;;;4.05;;
45326;SDS011;31062;49.678;24.560;2022-08-19T11:23:55;3.22;;;2.40;;
45326;SDS011;31062;49.678;24.560;2022-08-19T11:26:43;4.30;;;2.45;;
45326;SDS011;31062;49.678;24.560;2022-08-19T11:29:30;2.88;;;2.60;;
45326;SDS011;31062;49.678;24.560;2022-08-19T11:32:19;4.38;;;2.22;;
45326;SDS011;31062;49.678;24.560;2022-08-19T11:35:05;5.90;;;2.75;;
45326;SDS011;31062;49.678;24.560;2022-08-19T11:37:51;3.00;;;2.65;;
45326;SDS011;31062;49.678;24.560;2022-08-19T11:40:37;5.30;;;2.65;;
45326;SDS011;31062;49.678;24.560;2022-08-19T11:43:22;4.72;;;2.78;;
45326;SDS011;31062;49.678;24.560;2022-08-19T11:46:09;4.15;;;2.92;;
45326;SDS011;31062;49.678;24.560;2022-08-19T11:48:58;3.47;;;3.17;;
45326;SDS011;31062;49.678;24.560;2022-08-19T11:51:46;3.90;;;2.30;;
45326;SDS011;31062;49.678;24.560;2022-08-19T11:54:35;7.00;;;2.58;;
45326;SDS011;31062;49.678;24.560;2022-08-19T11:57:22;4.95;;;2.65;;
45326;SDS011;31062;49.678;24.560;2022-08-19T12:00:15;5.72;;;2.70;;
45326;SDS011;31062;49.678;24.560;2022-08-19T12:03:01;4.22;;;2.70;;
45326;SDS011;31062;49.678;24.560;2022-08-19T12:05:48;6.22;;;2.55;;
45326;SDS011;31062;49.678;24.560;2022-08-19T12:08:34;4.70;;;2.60;;
45326;SDS011;31062;49.678;24.560;2022-08-19T12:11:22;7.47;;;2.53;;
45326;SDS011;31062;49.678;24.560;2022-08-19T12:14:12;6.32;;;2.33;;
45326;SDS011;31062;49.678;24.560;2022-08-19T12:17:01;4.88;;;2.58;;
45326;SDS011;31062;49.678;24.560;2022-08-19T12:19:54;6.13;;;2.53;;
45326;SDS011;31062;49.678;24.560;2022-08-19T12:22:41;2.60;;;2.13;;
45326;SDS011;31062;49.678;24.560;2022-08-19T12:25:27;6.72;;;3.20;;
45326;SDS011;31062;49.678;24.560;2022-08-19T12:28:12;3.60;;;2.60;;
45326;SDS011;31062;49.678;24.560;2022-08-19T12:31:02;6.72;;;2.63;;
45326;SDS011;31062;49.678;24.560;2022-08-19T12:33:48;4.32;;;2.80;;
45326;SDS011;31062;49.678;24.560;2022-08-19T12:36:38;5.97;;;2.40;;
45326;SDS011;31062;49.678;24.560;2022-08-19T12:39:25;4.32;;;2.78;;
45326;SDS011;31062;49.678;24.560;2022-08-19T12:42:13;3.78;;;2.50;;
45326;SDS011;31062;49.678;24.560;2022-08-19T12:45:12;3.95;;;2.85;;
45326;SDS011;31062;49.678;24.560;2022-08-19T12:48:00;4.05;;;2.55;;
45326;SDS011;31062;49.678;24.560;2022-08-19T12:51:07;7.32;;;2.92;;
45326;SDS011;31062;49.678;24.560;2022-08-19T12:53:59;4.03;;;2.75;;
45326;SDS011;31062;49.678;24.560;2022-08-19T12:56:46;2.83;;;2.28;;
45326;SDS011;31062;49.678;24.560;2022-08-19T12:59:32;7.05;;;2.25;;
45326;SDS011;31062;49.678;24.560;2022-08-19T13:02:19;3.47;;;2.78;;
45326;SDS011;31062;49.678;24.560;2022-08-19T13:05:06;5.32;;;2.72;;
45326;SDS011;31062;49.678;24.560;2022-08-19T13:07:54;6.22;;;2.83;;
45326;SDS011;31062;49.678;24.560;2022-08-19T13:10:43;8.02;;;2.95;;
45326;SDS011;31062;49.678;24.560;2022-08-19T13:13:29;4.30;;;2.45;;
45326;SDS011;31062;49.678;24.560;2022-08-19T13:16:16;4.43;;;2.47;;
45326;SDS011;31062;49.678;24.560;2022-08-19T13:19:03;4.65;;;3.13;;
45326;SDS011;31062;49.678;24.560;2022-08-19T13:21:50;3.20;;;2.88;;
45326;SDS011;31062;49.678;24.560;2022-08-19T13:25:21;3.75;;;2.40;;
45326;SDS011;31062;49.678;24.560;2022-08-19T13:28:07;2.65;;;2.45;;
45326;SDS011;31062;49.678;24.560;2022-08-19T13:30:56;3.67;;;2.80;;
45326;SDS011;31062;49.678;24.560;2022-08-19T13:34:01;5.28;;;2.50;;
45326;SDS011;31062;49.678;24.560;2022-08-19T13:36:47;6.30;;;2.70;;
45326;SDS011;31062;49.678;24.560;2022-08-19T13:39:33;3.38;;;2.33;;
45326;SDS011;31062;49.678;24.560;2022-08-19T13:42:22;6.25;;;3.40;;
45326;SDS011;31062;49.678;24.560;2022-08-19T13:45:14;2.78;;;2.35;;
45326;SDS011;31062;49.678;24.560;2022-08-19T13:48:05;5.97;;;2.85;;
45326;SDS011;31062;49.678;24.560;2022-08-19T13:50:52;7.30;;;2.90;;
45326;SDS011;31062;49.678;24.560;2022-08-19T13:53:39;4.07;;;2.58;;
45326;SDS011;31062;49.678;24.560;2022-08-19T13:56:32;4.28;;;2.55;;
45326;SDS011;31062;49.678;24.560;2022-08-19T13:59:19;3.88;;;2.50;;
45326;SDS011;31062;49.678;24.560;2022-08-19T14:02:07;4.90;;;2.50;;
45326;SDS011;31062;49.678;24.560;2022-08-19T14:04:53;2.45;;;2.25;;
45326;SDS011;31062;49.678;24.560;2022-08-19T14:07:39;4.13;;;2.92;;
45326;SDS011;31062;49.678;24.560;2022-08-19T14:10:26;7.90;;;2.38;;
45326;SDS011;31062;49.678;24.560;2022-08-19T14:13:15;2.75;;;2.30;;
45326;SDS011;31062;49.678;24.560;2022-08-19T14:16:08;2.92;;;2.15;;
45326;SDS011;31062;49.678;24.560;2022-08-19T14:18:57;6.22;;;2.28;;
45326;SDS011;31062;49.678;24.560;2022-08-19T14:21:45;4.13;;;2.40;;
45326;SDS011;31062;49.678;24.560;2022-08-19T14:24:30;4.88;;;2.47;;
45326;SDS011;31062;49.678;24.560;2022-08-19T14:27:21;5.35;;;2.50;;
45326;SDS011;31062;49.678;24.560;2022-08-19T14:30:21;2.65;;;2.30;;
45326;SDS011;31062;49.678;24.560;2022-08-19T14:33:11;5.43;;;2.55;;
45326;SDS011;31062;49.678;24.560;2022-08-19T14:35:59;8.38;;;2.58;;
45326;SDS011;31062;49.678;24.560;2022-08-19T14:38:47;3.47;;;2.47;;
45326;SDS011;31062;49.678;24.560;2022-08-19T14:41:34;6.43;;;2.67;;
45326;SDS011;31062;49.678;24.560;2022-08-19T14:44:19;2.55;;;2.35;;
45326;SDS011;31062;49.678;24.560;2022-08-19T14:47:05;3.60;;;2.38;;
45326;SDS011;31062;49.678;24.560;2022-08-19T14:49:54;10.18;;;2.28;;
45326;SDS011;31062;49.678;24.560;2022-08-19T14:52:40;3.42;;;2.58;;
45326;SDS011;31062;49.678;24.560;2022-08-19T14:55:41;5.05;;;2.42;;
45326;SDS011;31062;49.678;24.560;2022-08-19T14:58:30;6.45;;;2.60;;
45326;SDS011;31062;49.678;24.560;2022-08-19T15:01:15;5.45;;;2.92;;
45326;SDS011;31062;49.678;24.560;2022-08-19T15:04:02;4.22;;;3.80;;
45326;SDS011;31062;49.678;24.560;2022-08-19T15:06:48;2.50;;;2.30;;
45326;SDS011;31062;49.678;24.560;2022-08-19T15:09:36;4.90;;;2.70;;
45326;SDS011;31062;49.678;24.560;2022-08-19T15:12:23;3.80;;;2.80;;
45326;SDS011;31062;49.678;24.560;2022-08-19T15:15:10;3.80;;;2.47;;
45326;SDS011;31062;49.678;24.560;2022-08-19T15:17:58;11.43;;;2.72;;
45326;SDS011;31062;49.678;24.560;2022-08-19T15:20:48;2.58;;;2.17;;
45326;SDS011;31062;49.678;24.560;2022-08-19T15:23:34;13.45;;;3.42;;
45326;SDS011;31062;49.678;24.560;2022-08-19T15:26:20;2.50;;;2.30;;
45326;SDS011;31062;49.678;24.560;2022-08-19T15:29:07;6.07;;;2.67;;
45326;SDS011;31062;49.678;24.560;2022-08-19T15:31:53;4.30;;;3.10;;
45326;SDS011;31062;49.678;24.560;2022-08-19T15:34:43;5.68;;;2.95;;
45326;SDS011;31062;49.678;24.560;2022-08-19T15:37:29;3.97;;;2.92;;
45326;SDS011;31062;49.678;24.560;2022-08-19T15:40:16;2.65;;;2.40;;
45326;SDS011;31062;49.678;24.560;2022-08-19T15:43:02;4.47;;;3.35;;
45326;SDS011;31062;49.678;24.560;2022-08-19T15:45:48;4.35;;;2.50;;
45326;SDS011;31062;49.678;24.560;2022-08-19T15:48:34;4.93;;;2.60;;
45326;SDS011;31062;49.678;24.560;2022-08-19T15:51:21;6.68;;;2.65;;
45326;SDS011;31062;49.678;24.560;2022-08-19T15:54:09;6.60;;;2.45;;
45326;SDS011;31062;49.678;24.560;2022-08-19T15:56:57;12.00;;;2.75;;
45326;SDS011;31062;49.678;24.560;2022-08-19T16:00:03;6.47;;;2.60;;
45326;SDS011;31062;49.678;24.560;2022-08-19T16:03:12;2.45;;;2.25;;
45326;SDS011;31062;49.678;24.560;2022-08-19T16:06:34;10.93;;;3.47;;
45326;SDS011;31062;49.678;24.560;2022-08-19T16:09:22;4.75;;;2.40;;
45326;SDS011;31062;49.678;24.560;2022-08-19T16:12:12;6.25;;;2.70;;
45326;SDS011;31062;49.678;24.560;2022-08-19T16:15:02;5.35;;;2.97;;
45326;SDS011;31062;49.678;24.560;2022-08-19T16:17:49;6.53;;;2.40;;
45326;SDS011;31062;49.678;24.560;2022-08-19T16:20:41;8.68;;;2.47;;
45326;SDS011;31062;49.678;24.560;2022-08-19T16:23:28;5.65;;;2.80;;
45326;SDS011;31062;49.678;24.560;2022-08-19T16:26:14;8.05;;;2.40;;
45326;SDS011;31062;49.678;24.560;2022-08-19T16:29:02;2.47;;;2.28;;
45326;SDS011;31062;49.678;24.560;2022-08-19T16:31:56;9.93;;;2.63;;
45326;SDS011;31062;49.678;24.560;2022-08-19T16:34:42;3.60;;;2.78;;
45326;SDS011;31062;49.678;24.560;2022-08-19T16:37:28;6.60;;;2.78;;
45326;SDS011;31062;49.678;24.560;2022-08-19T16:40:13;3.55;;;2.70;;
45326;SDS011;31062;49.678;24.560;2022-08-19T16:43:00;6.18;;;2.65;;
45326;SDS011;31062;49.678;24.560;2022-08-19T16:45:56;10.60;;;2.85;;
45326;SDS011;31062;49.678;24.560;2022-08-19T16:48:47;10.47;;;2.53;;
45326;SDS011;31062;49.678;24.560;2022-08-19T16:51:39;3.88;;;2.72;;